Bitflower — SBJE — position and weather

sailwx.info

Track history (hours):
 
Tides and Currents Weather Stations Pressure Air Temp Water Temp Dewpoint Dewpoint Depression Visibility Wind Speed Wind Dir Waves Ship Positions

Bitflower

Last reported at 2016-Jul-25 11:33 UTC. Time now 2016-Jul-25 11:58 UTC.
Position N 53°19' W 002°57'.

Length 116 m; draft 4.8 m.

Type: Tanker. MMSI: 266009000.

Date/timePositionNaut miles runAvg speedWind from/ knotsBaromVisibWave heightAir tempDewpointWater temp
2016-Jul-25 11:33N 53°19' W 002°57'0 0.0
2016-Jul-25 10:32N 53°19' W 002°57'0 0.0
2016-Jul-25 09:33N 53°19' W 002°57'0 0.0
2016-Jul-25 08:33N 53°19' W 002°57'0 0.0
2016-Jul-25 07:33N 53°19' W 002°57'0 0.0
2016-Jul-25 06:33N 53°19' W 002°57'0 0.0
2016-Jul-25 05:33N 53°19' W 002°57'0 0.0
2016-Jul-25 04:32N 53°19' W 002°57'0 0.0
2016-Jul-25 03:33N 53°19' W 002°57'0 0.0
2016-Jul-25 02:33N 53°19' W 002°57'0 0.0
2016-Jul-25 01:33N 53°19' W 002°57'0 0.0
2016-Jul-25 00:33N 53°19' W 002°57'0 0.0
2016-Jul-24 23:33N 53°19' W 002°57'0 0.0
2016-Jul-24 22:33N 53°19' W 002°57'0 0.0
2016-Jul-24 21:33N 53°19' W 002°57'0 0.0
2016-Jul-24 20:33N 53°19' W 002°57'0 0.0
2016-Jul-24 19:33N 53°19' W 002°57'0 0.0
2016-Jul-24 18:32N 53°19' W 002°57'0 0.0
2016-Jul-24 17:33N 53°19' W 002°57'0 0.0
2016-Jul-24 16:33N 53°19' W 002°57'0 0.2
2016-Jul-24 15:33N 53°19' W 002°57'2 2.2
2016-Jul-24 14:33N 53°21' W 002°58'5 4.9
2016-Jul-24 13:33N 53°26' W 003°01'9 9.4
2016-Jul-24 12:33N 53°31' W 003°14'7 7.3
2016-Jul-24 11:33N 53°28' W 003°26'0 0.1
2016-Jul-24 10:30N 53°28' W 003°25'0 0.0
2016-Jul-24 09:30N 53°28' W 003°25'0 0.1
2016-Jul-24 08:24N 53°28' W 003°26'0 0.1
2016-Jul-24 07:28N 53°28' W 003°26'0 0.0
2016-Jul-24 06:30N 53°28' W 003°26'0 0.0
2016-Jul-24 05:28N 53°28' W 003°26'0 0.0
2016-Jul-24 04:30N 53°28' W 003°26'0 0.0
2016-Jul-24 03:34N 53°28' W 003°26'0 0.0
2016-Jul-24 02:34N 53°28' W 003°26'0 0.1
2016-Jul-24 01:34N 53°28' W 003°25'0 0.1
2016-Jul-24 00:33N 53°28' W 003°25'0 0.0
2016-Jul-23 23:33N 53°28' W 003°25'0 0.0
2016-Jul-23 22:30N 53°28' W 003°25'0 0.0
2016-Jul-23 21:33N 53°28' W 003°25'0 0.1
2016-Jul-23 20:33N 53°28' W 003°25'10 9.8
2016-Jul-23 19:33N 53°31' W 003°41'73 2.1
2016-Jul-22 08:28N 54°09' W 005°28'1314.0
2016-Jul-22 07:34N 54°20' W 005°20'2512.4
2016-Jul-22 05:33N 54°43' W 005°36'12 0.8
2016-Jul-21 14:30N 54°38' W 005°53'9 9.3
2016-Jul-21 13:33N 54°43' W 005°41'10 9.9
2016-Jul-21 12:33N 54°41' W 005°25'1413.9
2016-Jul-21 11:33N 54°28' W 005°17'1313.4
2016-Jul-21 10:33N 54°14' W 005°20'1413.6
2016-Jul-21 09:33N 54°01' W 005°24'  
2016-Jul-15 22:33N 45°45' W 004°55'2013.6
2016-Jul-15 21:06N 45°57' W 004°33'5013.5
2016-Jul-15 17:24N 46°29' W 003°37'2513.4
2016-Jul-15 15:32N 46°45' W 003°09'1413.7
2016-Jul-15 14:32N 46°53' W 002°53'1212.4
2016-Jul-15 13:32N 47°01' W 002°39'1312.6
2016-Jul-15 12:32N 47°07' W 002°23'  
Track history (hours):
 
Tides and Currents Weather Stations Pressure Air Temp Water Temp Dewpoint Dewpoint Depression Visibility Wind Speed Wind Dir Waves Ship Positions

Bitflower

Last reported at 2016-Jul-25 11:33 UTC. Time now 2016-Jul-25 11:58 UTC.
Position N 53°19' W 002°57'.

Length 116 m; draft 4.8 m.

Type: Tanker. MMSI: 266009000.

Date/timePositionNaut miles runAvg speedWind from/ knotsBaromVisibWave heightAir tempDewpointWater temp
2016-Jul-25 11:33N 53°19' W 002°57'0 0.0
2016-Jul-25 10:32N 53°19' W 002°57'0 0.0
2016-Jul-25 09:33N 53°19' W 002°57'0 0.0
2016-Jul-25 08:33N 53°19' W 002°57'0 0.0
2016-Jul-25 07:33N 53°19' W 002°57'0 0.0
2016-Jul-25 06:33N 53°19' W 002°57'0 0.0
2016-Jul-25 05:33N 53°19' W 002°57'0 0.0
2016-Jul-25 04:32N 53°19' W 002°57'0 0.0
2016-Jul-25 03:33N 53°19' W 002°57'0 0.0
2016-Jul-25 02:33N 53°19' W 002°57'0 0.0
2016-Jul-25 01:33N 53°19' W 002°57'0 0.0
2016-Jul-25 00:33N 53°19' W 002°57'0 0.0
2016-Jul-24 23:33N 53°19' W 002°57'0 0.0
2016-Jul-24 22:33N 53°19' W 002°57'0 0.0
2016-Jul-24 21:33N 53°19' W 002°57'0 0.0
2016-Jul-24 20:33N 53°19' W 002°57'0 0.0
2016-Jul-24 19:33N 53°19' W 002°57'0 0.0
2016-Jul-24 18:32N 53°19' W 002°57'0 0.0
2016-Jul-24 17:33N 53°19' W 002°57'0 0.0
2016-Jul-24 16:33N 53°19' W 002°57'0 0.2
2016-Jul-24 15:33N 53°19' W 002°57'2 2.2
2016-Jul-24 14:33N 53°21' W 002°58'5 4.9
2016-Jul-24 13:33N 53°26' W 003°01'9 9.4
2016-Jul-24 12:33N 53°31' W 003°14'7 7.3
2016-Jul-24 11:33N 53°28' W 003°26'0 0.1
2016-Jul-24 10:30N 53°28' W 003°25'0 0.0
2016-Jul-24 09:30N 53°28' W 003°25'0 0.1
2016-Jul-24 08:24N 53°28' W 003°26'0 0.1
2016-Jul-24 07:28N 53°28' W 003°26'0 0.0
2016-Jul-24 06:30N 53°28' W 003°26'0 0.0
2016-Jul-24 05:28N 53°28' W 003°26'0 0.0
2016-Jul-24 04:30N 53°28' W 003°26'0 0.0
2016-Jul-24 03:34N 53°28' W 003°26'0 0.0
2016-Jul-24 02:34N 53°28' W 003°26'0 0.1
2016-Jul-24 01:34N 53°28' W 003°25'0 0.1
2016-Jul-24 00:33N 53°28' W 003°25'0 0.0
2016-Jul-23 23:33N 53°28' W 003°25'0 0.0
2016-Jul-23 22:30N 53°28' W 003°25'0 0.0
2016-Jul-23 21:33N 53°28' W 003°25'0 0.1
2016-Jul-23 20:33N 53°28' W 003°25'10 9.8
2016-Jul-23 19:33N 53°31' W 003°41'73 2.1
2016-Jul-22 08:28N 54°09' W 005°28'1314.0
2016-Jul-22 07:34N 54°20' W 005°20'2512.4
2016-Jul-22 05:33N 54°43' W 005°36'12 0.8
2016-Jul-21 14:30N 54°38' W 005°53'9 9.3
2016-Jul-21 13:33N 54°43' W 005°41'10 9.9
2016-Jul-21 12:33N 54°41' W 005°25'1413.9
2016-Jul-21 11:33N 54°28' W 005°17'1313.4
2016-Jul-21 10:33N 54°14' W 005°20'1413.6
2016-Jul-21 09:33N 54°01' W 005°24'  
2016-Jul-15 22:33N 45°45' W 004°55'2013.6
2016-Jul-15 21:06N 45°57' W 004°33'5013.5
2016-Jul-15 17:24N 46°29' W 003°37'2513.4
2016-Jul-15 15:32N 46°45' W 003°09'1413.7
2016-Jul-15 14:32N 46°53' W 002°53'1212.4
2016-Jul-15 13:32N 47°01' W 002°39'1312.6
2016-Jul-15 12:32N 47°07' W 002°23'  

Dump ship's entire track history